Time;durP1;ratioP1;P1;durP2;ratioP2;P2;SDS_P1;SDS_P2;PMS_P1;PMS_P2;Temp;Humidity;BMP_temperature;BMP_pressure;BME280_temperature;BME280_humidity;BME280_pressure;Samples;Min_cycle;Max_cycle;Signal;HPM_P1;HPM_P2
2022/12/07 00:01:12;;;;;;;11.45;6.75;;;4.20;99.90;;;;;;5062910;28;20040;-65
2022/12/07 00:03:39;;;;;;;22.98;16.63;;;4.20;99.90;;;;;;5070430;28;20452;-65
2022/12/07 00:06:06;;;;;;;26.60;16.10;;;4.20;99.90;;;;;;5071465;28;20037;-65
2022/12/07 00:08:33;;;;;;;36.00;26.90;;;4.10;99.90;;;;;;5067344;28;20478;-65
2022/12/07 00:11:07;;;;;;;41.50;30.42;;;4.10;99.90;;;;;;5069710;28;20036;-65
2022/12/07 00:13:34;;;;;;;19.33;12.77;;;4.10;99.90;;;;;;5057675;28;20072;-65
2022/12/07 00:16:06;;;;;;;54.70;44.92;;;4.10;99.90;;;;;;5069258;28;20448;-65
2022/12/07 00:18:31;;;;;;;44.05;29.83;;;4.00;99.90;;;;;;5078943;28;20497;-65
2022/12/07 00:21:17;;;;;;;47.13;29.50;;;4.00;99.90;;;;;;5067942;28;20052;-65
2022/12/07 00:23:44;;;;;;;24.98;13.95;;;4.00;99.90;;;;;;5061043;28;20123;-65
2022/12/07 00:26:13;;;;;;;26.20;17.30;;;4.00;99.90;;;;;;5070318;28;20148;-65
2022/12/07 00:28:39;;;;;;;10.57;5.03;;;3.90;99.90;;;;;;5063516;28;20040;-65
2022/12/07 00:31:08;;;;;;;13.55;8.82;;;3.90;99.90;;;;;;5068683;28;20025;-65
2022/12/07 00:33:34;;;;;;;11.27;6.90;;;3.90;99.90;;;;;;5060531;22;20462;-70
2022/12/07 00:36:03;;;;;;;27.25;18.42;;;3.80;99.90;;;;;;5019603;28;20087;-71
2022/12/07 00:38:30;;;;;;;13.43;7.07;;;3.80;99.90;;;;;;5032750;28;20041;-71
2022/12/07 00:40:57;;;;;;;7.60;4.00;;;3.80;99.90;;;;;;5029930;28;20095;-71
2022/12/07 00:43:23;;;;;;;24.13;16.58;;;3.70;99.90;;;;;;5028685;28;20041;-71
2022/12/07 00:45:49;;;;;;;9.20;5.05;;;3.70;99.90;;;;;;5049266;28;20144;-71
2022/12/07 00:48:14;;;;;;;6.78;3.03;;;3.70;99.90;;;;;;5030805;28;20113;-71
2022/12/07 00:50:40;;;;;;;6.65;2.60;;;3.70;99.90;;;;;;5029654;28;20041;-72
2022/12/07 00:53:06;;;;;;;24.88;14.65;;;3.70;99.90;;;;;;5032600;28;20129;-72
2022/12/07 00:55:35;;;;;;;6.97;2.80;;;3.70;99.90;;;;;;5034689;28;20068;-71
2022/12/07 00:58:01;;;;;;;8.75;2.42;;;3.70;99.90;;;;;;5034004;28;20033;-71
2022/12/07 01:00:27;;;;;;;18.00;7.75;;;3.70;99.90;;;;;;5033472;28;20495;-71
2022/12/07 01:02:52;;;;;;;9.20;3.92;;;3.70;99.90;;;;;;5032790;28;20041;-71
2022/12/07 01:05:18;;;;;;;9.38;3.33;;;3.80;99.90;;;;;;5032601;28;20403;-72
2022/12/07 01:07:44;;;;;;;8.43;3.63;;;3.70;99.90;;;;;;5033144;28;20032;-71
2022/12/07 01:10:10;;;;;;;13.00;7.78;;;3.70;99.90;;;;;;5032955;28;20457;-71
2022/12/07 01:12:35;;;;;;;9.15;3.35;;;3.60;99.90;;;;;;5031939;28;20033;-71
2022/12/07 01:15:01;;;;;;;4.80;2.17;;;3.60;99.90;;;;;;5033343;28;20052;-71
2022/12/07 01:17:28;;;;;;;15.63;10.00;;;3.60;99.90;;;;;;5027975;28;20099;-71
2022/12/07 01:19:53;;;;;;;23.88;12.18;;;3.60;99.90;;;;;;5030084;28;20049;-71
2022/12/07 01:22:19;;;;;;;10.45;5.88;;;3.60;99.90;;;;;;5028021;28;20037;-71
2022/12/07 01:24:46;;;;;;;8.02;2.60;;;3.50;99.90;;;;;;5032780;28;20036;-71
2022/12/07 01:27:12;;;;;;;6.95;3.55;;;3.50;99.90;;;;;;5029369;28;20037;-71
2022/12/07 01:29:38;;;;;;;5.20;1.73;;;3.50;99.90;;;;;;5031025;28;20029;-71
2022/12/07 01:32:04;;;;;;;15.02;8.32;;;3.60;99.90;;;;;;5030056;28;20466;-71
2022/12/07 01:34:29;;;;;;;4.93;2.45;;;3.60;99.90;;;;;;5029151;28;20091;-71
2022/12/07 01:36:55;;;;;;;33.13;19.10;;;3.60;99.90;;;;;;5032689;28;20041;-70
2022/12/07 01:39:21;;;;;;;51.83;28.05;;;3.70;99.90;;;;;;5032021;28;21562;-71
2022/12/07 01:41:47;;;;;;;16.70;7.68;;;3.60;99.90;;;;;;5034017;28;20049;-71
2022/12/07 01:44:19;;;;;;;40.55;24.58;;;3.60;99.90;;;;;;5033759;28;20046;-71
2022/12/07 01:46:56;;;;;;;15.52;8.98;;;3.60;99.90;;;;;;5032092;28;20499;-71
2022/12/07 01:49:28;;;;;;;16.55;11.88;;;3.60;99.90;;;;;;5031189;28;20445;-71
2022/12/07 01:52:03;;;;;;;11.93;6.40;;;3.60;99.90;;;;;;5033215;28;20033;-71
2022/12/07 01:54:29;;;;;;;10.23;3.35;;;3.60;99.90;;;;;;5024070;28;20042;-71
2022/12/07 01:56:57;;;;;;;13.27;7.13;;;3.60;99.90;;;;;;5032393;28;20095;-71
2022/12/07 01:59:25;;;;;;;9.13;1.73;;;3.60;99.90;;;;;;5032797;28;20486;-71
2022/12/07 02:01:52;;;;;;;6.85;2.17;;;3.60;99.90;;;;;;5023039;28;20038;-71
2022/12/07 02:04:18;;;;;;;6.28;1.83;;;3.70;99.90;;;;;;5024886;28;20488;-71
2022/12/07 02:06:45;;;;;;;5.43;1.80;;;3.70;99.90;;;;;;5030121;28;20041;-71
2022/12/07 02:09:12;;;;;;;9.30;1.48;;;3.70;99.90;;;;;;5030833;28;20053;-71
2022/12/07 02:11:38;;;;;;;5.97;1.40;;;3.80;99.90;;;;;;5032177;28;20040;-70
2022/12/07 02:14:04;;;;;;;4.82;2.10;;;3.90;99.90;;;;;;5031565;28;20033;-71
2022/12/07 02:16:55;;;;;;;7.50;1.30;;;3.90;99.90;;;;;;5031611;28;20034;-71
2022/12/07 02:20:05;;;;;;;5.22;1.48;;;4.00;99.90;;;;;;5031740;28;20521;-70
2022/12/07 02:22:51;;;;;;;5.68;1.30;;;4.00;99.90;;;;;;5033415;28;20038;-70
2022/12/07 02:25:38;;;;;;;4.05;1.10;;;4.10;99.90;;;;;;5030939;28;20121;-70
2022/12/07 02:28:20;;;;;;;3.58;1.10;;;4.10;99.90;;;;;;5032567;28;20080;-71
2022/12/07 02:30:50;;;;;;;5.38;1.60;;;4.10;99.90;;;;;;5028926;28;20100;-70
2022/12/07 02:33:35;;;;;;;7.30;1.40;;;4.10;99.90;;;;;;5029505;28;20041;-71
2022/12/07 02:36:30;;;;;;;4.68;1.10;;;4.10;99.90;;;;;;5031672;28;20088;-71
2022/12/07 02:39:06;;;;;;;6.95;1.38;;;4.10;99.90;;;;;;5029591;28;20410;-70
2022/12/07 02:41:36;;;;;;;3.38;1.05;;;4.10;99.90;;;;;;5030130;28;20127;-70
2022/12/07 02:44:09;;;;;;;5.45;1.40;;;4.00;99.90;;;;;;5032215;28;20038;-71
2022/12/07 02:46:46;;;;;;;6.40;1.55;;;4.00;99.90;;;;;;5023352;28;20042;-71
2022/12/07 02:49:12;;;;;;;4.10;1.10;;;3.90;99.90;;;;;;5030297;28;20034;-71
2022/12/07 02:51:44;;;;;;;6.22;1.20;;;3.90;99.90;;;;;;5032833;28;20124;-71
2022/12/07 02:54:18;;;;;;;4.90;1.13;;;3.80;99.90;;;;;;5026996;28;20785;-70
2022/12/07 02:56:43;;;;;;;4.63;1.40;;;3.70;99.90;;;;;;5027846;28;20434;-71
2022/12/07 02:59:47;;;;;;;5.47;1.45;;;3.70;99.90;;;;;;5031503;28;20048;-70
2022/12/07 03:02:39;;;;;;;8.63;1.60;;;3.60;99.90;;;;;;5029848;28;20045;-70
2022/12/07 03:05:35;;;;;;;7.97;1.90;;;3.60;99.90;;;;;;5004039;28;20304;-70
2022/12/07 03:08:15;;;;;;;7.70;1.70;;;3.60;99.90;;;;;;5027004;28;20042;-71
2022/12/07 03:10:51;;;;;;;7.93;1.95;;;3.60;99.90;;;;;;5015234;28;20045;-71
2022/12/07 03:13:22;;;;;;;6.38;1.70;;;3.50;99.90;;;;;;5026627;28;20117;-70
2022/12/07 03:16:20;;;;;;;6.43;1.67;;;3.50;99.90;;;;;;5028537;28;20042;-71
2022/12/07 03:18:52;;;;;;;7.07;1.60;;;3.50;99.90;;;;;;5031882;28;20029;-70
2022/12/07 03:21:22;;;;;;;5.65;1.80;;;3.50;99.90;;;;;;5030595;28;20128;-70
2022/12/07 03:23:53;;;;;;;7.80;1.88;;;3.50;99.90;;;;;;5031708;28;20037;-70
2022/12/07 03:26:21;;;;;;;7.25;1.63;;;3.50;99.90;;;;;;5027362;28;20555;-70
2022/12/07 03:28:54;;;;;;;7.60;1.67;;;3.50;99.90;;;;;;5031426;28;20116;-70
2022/12/07 03:31:30;;;;;;;4.50;1.50;;;3.60;99.90;;;;;;5031012;28;20037;-70
2022/12/07 03:34:16;;;;;;;4.70;1.42;;;3.60;99.90;;;;;;5029965;28;20037;-70
2022/12/07 03:37:03;;;;;;;8.65;1.60;;;3.60;99.90;;;;;;5027256;28;20045;-70
2022/12/07 03:39:33;;;;;;;8.00;1.98;;;3.60;99.90;;;;;;5031767;28;20096;-70
2022/12/07 03:42:00;;;;;;;4.10;1.08;;;3.60;99.90;;;;;;5026153;28;20041;-70
2022/12/07 03:44:27;;;;;;;8.30;1.23;;;3.60;99.90;;;;;;5030659;28;20113;-70
2022/12/07 03:47:21;;;;;;;5.32;1.42;;;3.60;99.90;;;;;;5030711;28;20399;-70
2022/12/07 03:49:56;;;;;;;7.70;1.90;;;3.60;99.90;;;;;;5028639;28;20509;-70
2022/12/07 03:52:40;;;;;;;5.13;1.27;;;3.60;99.90;;;;;;5031156;28;20034;-70
2022/12/07 03:55:08;;;;;;;5.30;1.10;;;3.60;99.90;;;;;;5022744;28;20037;-70
2022/12/07 03:57:35;;;;;;;6.03;1.20;;;3.60;99.90;;;;;;5029878;28;20050;-70
2022/12/07 04:00:04;;;;;;;5.82;1.10;;;3.60;99.90;;;;;;5031232;28;20087;-70
2022/12/07 04:02:30;;;;;;;6.75;1.35;;;3.60;99.90;;;;;;5016907;28;20044;-70
2022/12/07 04:04:56;;;;;;;6.13;1.23;;;3.50;99.90;;;;;;5026815;28;20037;-70
2022/12/07 04:07:22;;;;;;;5.55;1.30;;;3.50;99.90;;;;;;5024782;28;20030;-70
2022/12/07 04:09:48;;;;;;;6.57;1.40;;;3.50;99.90;;;;;;5011875;28;20041;-70
2022/12/07 04:12:13;;;;;;;4.95;1.13;;;3.50;99.90;;;;;;5026465;28;20033;-70
2022/12/07 04:14:39;;;;;;;3.33;0.95;;;3.40;99.90;;;;;;5030513;28;20562;-70
2022/12/07 04:17:04;;;;;;;2.47;1.17;;;3.40;99.90;;;;;;5020552;28;20037;-70
2022/12/07 04:19:32;;;;;;;3.35;1.40;;;3.30;99.90;;;;;;5033094;28;20095;-70
2022/12/07 04:22:00;;;;;;;4.53;1.10;;;3.30;99.90;;;;;;5033988;28;20562;-70
2022/12/07 04:24:26;;;;;;;5.40;1.15;;;3.20;99.90;;;;;;5035212;28;20038;-70
2022/12/07 04:26:52;;;;;;;5.93;1.20;;;3.30;99.90;;;;;;5032234;28;20038;-70
2022/12/07 04:29:18;;;;;;;2.78;0.95;;;3.20;99.90;;;;;;5034843;28;20036;-70
2022/12/07 04:31:44;;;;;;;8.50;1.38;;;3.20;99.90;;;;;;5018946;28;20395;-70
2022/12/07 04:34:10;;;;;;;6.70;1.02;;;3.20;99.90;;;;;;5027444;28;20068;-70
2022/12/07 04:36:37;;;;;;;3.97;1.15;;;3.20;99.90;;;;;;5034598;28;20037;-70
2022/12/07 04:39:04;;;;;;;7.40;1.10;;;3.20;99.90;;;;;;5033262;28;20060;-70
2022/12/07 04:41:29;;;;;;;5.13;1.05;;;3.20;99.90;;;;;;5033575;28;20037;-70
2022/12/07 04:44:02;;;;;;;8.20;1.20;;;3.10;99.90;;;;;;5033108;28;20041;-70
2022/12/07 04:46:29;;;;;;;8.68;1.38;;;3.10;99.90;;;;;;5035284;28;20421;-70
2022/12/07 04:48:55;;;;;;;5.28;1.10;;;3.10;99.90;;;;;;5032905;28;20060;-70
2022/12/07 04:51:28;;;;;;;4.60;1.08;;;3.10;99.90;;;;;;5028622;28;20483;-70
2022/12/07 04:53:55;;;;;;;3.80;1.10;;;3.00;99.90;;;;;;5032674;28;20045;-70
2022/12/07 04:56:22;;;;;;;3.50;1.30;;;3.00;99.90;;;;;;5035053;28;20037;-70
2022/12/07 04:58:48;;;;;;;2.60;0.95;;;3.00;99.90;;;;;;5025325;28;20495;-70
2022/12/07 05:01:15;;;;;;;6.30;1.27;;;3.00;99.90;;;;;;5032497;28;20116;-70
2022/12/07 05:03:41;;;;;;;6.85;1.20;;;3.00;99.90;;;;;;5029085;28;20395;-70
2022/12/07 05:06:07;;;;;;;3.70;1.05;;;3.00;99.90;;;;;;5032513;28;20045;-70
2022/12/07 05:08:34;;;;;;;5.93;1.45;;;3.00;99.90;;;;;;5032641;28;20394;-70
2022/12/07 05:11:00;;;;;;;4.50;0.93;;;3.00;99.90;;;;;;5030281;28;20553;-70
2022/12/07 05:13:26;;;;;;;6.32;0.90;;;3.00;99.90;;;;;;5031597;28;20487;-71
2022/12/07 05:15:52;;;;;;;6.03;1.30;;;3.00;99.90;;;;;;5030252;28;20037;-70
2022/12/07 05:18:17;;;;;;;4.70;1.10;;;3.00;99.90;;;;;;5030762;28;20045;-70
2022/12/07 05:20:44;;;;;;;5.13;1.00;;;3.00;99.90;;;;;;5015227;28;20053;-69
2022/12/07 05:23:10;;;;;;;7.30;1.85;;;3.00;99.90;;;;;;5033711;28;20483;-69
2022/12/07 05:25:36;;;;;;;4.50;1.17;;;3.00;99.90;;;;;;5033224;28;20037;-71
2022/12/07 05:28:02;;;;;;;8.85;1.77;;;3.00;99.90;;;;;;5029727;28;20204;-70
2022/12/07 05:30:28;;;;;;;6.90;1.13;;;3.00;99.90;;;;;;5034017;28;20112;-70
2022/12/07 05:32:53;;;;;;;3.40;1.00;;;3.00;99.90;;;;;;5033140;28;20038;-70
2022/12/07 05:35:19;;;;;;;6.82;1.10;;;3.00;99.90;;;;;;5031756;28;20029;-70
2022/12/07 05:37:45;;;;;;;5.30;1.20;;;3.00;99.90;;;;;;5025334;28;20171;-70
2022/12/07 05:40:12;;;;;;;6.05;1.10;;;2.90;99.90;;;;;;5028214;28;20099;-70
2022/12/07 05:42:38;;;;;;;7.50;1.30;;;3.00;99.90;;;;;;5024895;28;20044;-70
2022/12/07 05:45:04;;;;;;;8.18;2.58;;;3.00;99.90;;;;;;5032559;28;20038;-70
2022/12/07 05:47:30;;;;;;;16.90;5.85;;;3.00;99.90;;;;;;5032691;28;20044;-70
2022/12/07 05:49:55;;;;;;;8.48;2.20;;;3.00;99.90;;;;;;5027568;28;20034;-70
2022/12/07 05:52:21;;;;;;;10.93;1.30;;;3.00;99.90;;;;;;5030431;28;20505;-70
2022/12/07 05:54:47;;;;;;;4.80;1.00;;;3.00;99.90;;;;;;5033154;28;20068;-70
2022/12/07 05:57:12;;;;;;;5.43;1.17;;;3.00;99.90;;;;;;5032645;28;20041;-70
2022/12/07 05:59:38;;;;;;;10.80;1.35;;;3.00;99.90;;;;;;5033996;28;20042;-70
2022/12/07 06:02:06;;;;;;;4.60;0.90;;;3.00;99.90;;;;;;5032129;28;20513;-70
2022/12/07 06:04:38;;;;;;;2.42;0.88;;;2.90;99.90;;;;;;5031237;28;20091;-70
2022/12/07 06:07:04;;;;;;;6.72;1.02;;;2.90;99.90;;;;;;5033491;28;20120;-70
2022/12/07 06:09:30;;;;;;;6.35;0.90;;;2.90;99.90;;;;;;5033247;28;20048;-70
2022/12/07 06:14:42;;;;;;;5.65;0.95;;;2.70;99.90;;;;;;5029006;28;20399;-70
2022/12/07 06:17:08;;;;;;;9.50;1.05;;;2.70;99.90;;;;;;5033579;28;20045;-70
2022/12/07 06:19:35;;;;;;;6.70;0.90;;;2.70;99.90;;;;;;5030291;28;20422;-70
2022/12/07 06:22:01;;;;;;;5.13;0.82;;;2.60;99.90;;;;;;5030545;28;20458;-70
2022/12/07 06:24:26;;;;;;;4.78;1.10;;;2.60;99.90;;;;;;5030768;28;20217;-70
2022/12/07 06:26:52;;;;;;;5.63;0.90;;;2.60;99.90;;;;;;5033494;28;20033;-70
2022/12/07 06:29:18;;;;;;;4.82;1.10;;;2.50;99.90;;;;;;5032815;28;20036;-70
2022/12/07 06:31:44;;;;;;;2.00;0.85;;;2.50;99.90;;;;;;5028185;28;20391;-70
2022/12/07 06:34:12;;;;;;;8.82;1.17;;;2.50;99.90;;;;;;5079990;22;20105;-64
2022/12/07 06:36:39;;;;;;;2.17;0.73;;;2.50;99.90;;;;;;5092926;28;20077;-63
2022/12/07 06:39:05;;;;;;;5.38;1.30;;;2.50;99.90;;;;;;5091863;28;20040;-64
2022/12/07 06:41:31;;;;;;;6.45;1.20;;;2.50;99.90;;;;;;5090625;28;20051;-64
2022/12/07 06:43:56;;;;;;;7.03;1.48;;;2.50;99.90;;;;;;5090758;28;20125;-63
2022/12/07 06:46:23;;;;;;;6.25;1.08;;;2.50;99.90;;;;;;5091709;28;20075;-64
2022/12/07 06:48:48;;;;;;;8.70;1.48;;;2.50;99.90;;;;;;5091317;28;20039;-64
2022/12/07 06:51:14;;;;;;;4.97;1.20;;;2.50;99.90;;;;;;5089713;28;20032;-64
2022/12/07 06:53:40;;;;;;;5.88;1.05;;;2.50;99.90;;;;;;5087846;28;20036;-64
2022/12/07 06:56:06;;;;;;;6.20;1.30;;;2.60;99.90;;;;;;5089878;28;20028;-64
2022/12/07 06:58:31;;;;;;;3.35;0.90;;;2.60;99.90;;;;;;5090516;28;20071;-64
2022/12/07 07:00:57;;;;;;;6.05;1.55;;;2.60;99.90;;;;;;5090227;28;20036;-64
2022/12/07 07:03:23;;;;;;;6.40;1.23;;;2.60;99.90;;;;;;5086958;28;20039;-64
2022/12/07 07:05:48;;;;;;;3.28;1.20;;;2.70;99.90;;;;;;5088334;28;20083;-65
2022/12/07 07:08:14;;;;;;;4.20;1.00;;;2.70;99.90;;;;;;5089816;28;20046;-64
2022/12/07 07:10:40;;;;;;;6.72;1.50;;;2.70;99.90;;;;;;5091750;28;20111;-65
2022/12/07 07:13:06;;;;;;;4.50;1.17;;;2.70;99.90;;;;;;5087986;28;20031;-64
2022/12/07 07:15:32;;;;;;;5.15;2.38;;;2.60;99.90;;;;;;5089787;28;20036;-64
2022/12/07 07:17:58;;;;;;;5.05;1.30;;;2.60;99.90;;;;;;5091612;28;20103;-64
2022/12/07 07:20:24;;;;;;;5.93;2.33;;;2.70;99.90;;;;;;5087941;28;20032;-64
2022/12/07 07:22:50;;;;;;;4.32;1.00;;;2.70;99.90;;;;;;5088986;28;20086;-64
2022/12/07 07:25:16;;;;;;;11.57;1.90;;;2.80;99.90;;;;;;5082739;28;20482;-64
2022/12/07 07:27:41;;;;;;;5.38;1.30;;;2.80;99.90;;;;;;5091824;28;20040;-64
2022/12/07 07:30:08;;;;;;;8.93;1.52;;;2.80;99.90;;;;;;5082427;28;20031;-64
2022/12/07 07:32:34;;;;;;;7.28;1.30;;;2.90;99.90;;;;;;5089418;28;20035;-65
2022/12/07 07:35:00;;;;;;;7.35;1.38;;;2.90;99.90;;;;;;5088707;28;20028;-65
2022/12/07 07:37:26;;;;;;;8.30;1.20;;;3.00;99.90;;;;;;5092149;28;20051;-65
2022/12/07 07:39:51;;;;;;;7.75;1.30;;;3.00;99.90;;;;;;5093644;28;20044;-65
2022/12/07 07:42:17;;;;;;;5.68;1.23;;;3.00;99.90;;;;;;5086886;28;20462;-65
2022/12/07 07:44:43;;;;;;;9.25;1.33;;;3.00;99.90;;;;;;5087774;28;20039;-64
2022/12/07 07:47:08;;;;;;;6.20;0.93;;;3.10;99.90;;;;;;5088491;28;20032;-64
2022/12/07 07:49:34;;;;;;;4.18;1.15;;;3.10;99.90;;;;;;5087112;28;20028;-64
2022/12/07 07:52:00;;;;;;;5.97;0.93;;;3.20;99.90;;;;;;5089497;28;20304;-65
2022/12/07 07:54:25;;;;;;;4.65;0.95;;;3.10;99.90;;;;;;5086772;28;20565;-65
2022/12/07 07:56:52;;;;;;;8.02;1.60;;;3.20;99.90;;;;;;5089552;28;20032;-65
2022/12/07 07:59:18;;;;;;;7.78;1.40;;;3.20;99.90;;;;;;5094366;28;20039;-64
2022/12/07 08:01:43;;;;;;;6.15;1.50;;;3.20;99.90;;;;;;5090984;28;20047;-64
2022/12/07 08:04:09;;;;;;;9.05;1.60;;;3.20;99.90;;;;;;5090804;28;20036;-65
2022/12/07 08:06:35;;;;;;;7.28;1.45;;;3.20;99.90;;;;;;5090800;28;20413;-65
2022/12/07 08:09:00;;;;;;;9.15;1.42;;;3.10;99.90;;;;;;5090639;28;20027;-64
2022/12/07 08:11:26;;;;;;;10.30;1.35;;;3.20;99.90;;;;;;5088000;28;20039;-65
2022/12/07 08:13:52;;;;;;;4.30;1.08;;;3.20;99.90;;;;;;5086641;28;20036;-64
2022/12/07 08:16:17;;;;;;;4.80;1.00;;;3.20;99.90;;;;;;5090719;28;20028;-64
2022/12/07 08:18:43;;;;;;;5.78;1.00;;;3.20;99.90;;;;;;5089821;28;20043;-64
2022/12/07 08:21:13;;;;;;;12.43;1.60;;;3.20;99.90;;;;;;5089753;28;20039;-64
2022/12/07 08:23:39;;;;;;;4.22;1.23;;;3.20;99.90;;;;;;5089277;28;20115;-64
2022/12/07 08:26:08;;;;;;;7.93;1.52;;;3.20;99.90;;;;;;5089509;28;20202;-64
2022/12/07 08:28:34;;;;;;;3.97;1.25;;;3.20;99.90;;;;;;5089052;28;20107;-64
2022/12/07 08:31:01;;;;;;;7.07;1.38;;;3.20;99.90;;;;;;5088755;28;20439;-64
2022/12/07 08:33:27;;;;;;;9.55;2.30;;;3.30;99.90;;;;;;5083768;28;20031;-64
2022/12/07 08:35:52;;;;;;;4.72;1.40;;;3.30;99.90;;;;;;5088051;28;20040;-64
2022/12/07 08:38:18;;;;;;;6.35;1.50;;;3.30;99.90;;;;;;5072924;28;20036;-64
2022/12/07 08:40:43;;;;;;;4.53;1.48;;;3.30;99.90;;;;;;5090436;28;20082;-64
2022/12/07 08:43:09;;;;;;;9.40;1.50;;;3.40;99.90;;;;;;5086583;28;20429;-63
2022/12/07 08:45:35;;;;;;;6.82;1.60;;;3.40;99.90;;;;;;5086921;28;20036;-64
2022/12/07 08:48:08;;;;;;;7.18;2.15;;;3.40;99.90;;;;;;5090537;28;20040;-64
2022/12/07 08:50:35;;;;;;;4.63;1.48;;;3.40;99.90;;;;;;5090227;28;20508;-64
2022/12/07 08:53:02;;;;;;;5.75;1.58;;;3.30;99.90;;;;;;5085791;28;20109;-64
2022/12/07 08:55:29;;;;;;;7.35;1.55;;;3.30;99.90;;;;;;5089680;28;20039;-63
2022/12/07 08:57:55;;;;;;;7.03;1.30;;;3.30;99.90;;;;;;5091677;28;20044;-63
2022/12/07 09:00:20;;;;;;;4.55;1.45;;;3.30;99.90;;;;;;5087804;28;20042;-63
2022/12/07 09:02:46;;;;;;;3.80;1.20;;;3.30;99.90;;;;;;5090335;28;20047;-63
2022/12/07 09:05:14;;;;;;;9.10;1.20;;;3.30;99.90;;;;;;5090365;28;20516;-63
2022/12/07 09:07:41;;;;;;;8.55;1.60;;;3.40;99.90;;;;;;5100755;28;20047;-63
2022/12/07 09:10:07;;;;;;;6.60;1.40;;;3.40;99.90;;;;;;5091687;28;20032;-64
2022/12/07 09:12:33;;;;;;;4.10;1.30;;;3.60;99.90;;;;;;5093442;28;20036;-64
2022/12/07 09:15:00;;;;;;;7.97;1.75;;;3.70;99.90;;;;;;5089948;28;20047;-64
2022/12/07 09:17:26;;;;;;;6.45;2.22;;;3.90;99.90;;;;;;5087638;28;20040;-64
2022/12/07 09:19:51;;;;;;;6.68;1.10;;;3.90;99.90;;;;;;5086276;28;20216;-65
2022/12/07 09:22:17;;;;;;;8.85;1.42;;;4.00;99.90;;;;;;5082169;28;20036;-64
2022/12/07 09:24:44;;;;;;;4.38;1.20;;;4.00;99.90;;;;;;5090786;28;20040;-64
2022/12/07 09:27:10;;;;;;;4.70;1.20;;;4.00;99.90;;;;;;5088258;28;20052;-65
2022/12/07 09:29:36;;;;;;;4.95;1.15;;;4.00;99.90;;;;;;5089918;28;20028;-65
2022/12/07 09:32:02;;;;;;;9.13;1.45;;;4.00;99.90;;;;;;5083955;28;20086;-65
2022/12/07 09:34:31;;;;;;;9.63;1.42;;;4.00;99.90;;;;;;5091762;28;20040;-65
2022/12/07 09:36:57;;;;;;;6.28;1.10;;;4.00;99.90;;;;;;5094040;28;20505;-65
2022/12/07 09:39:23;;;;;;;3.58;1.10;;;4.10;99.90;;;;;;5091450;28;20032;-65
2022/12/07 09:41:49;;;;;;;4.65;1.20;;;4.20;99.90;;;;;;5090434;28;20100;-65
2022/12/07 09:44:21;;;;;;;6.75;1.40;;;4.20;99.90;;;;;;5074139;28;20127;-65
2022/12/07 09:46:47;;;;;;;8.27;1.30;;;4.20;99.90;;;;;;5092643;28;20055;-65
2022/12/07 09:49:26;;;;;;;7.38;1.67;;;4.20;99.90;;;;;;5093018;28;20043;-65
2022/12/07 09:52:17;;;;;;;4.95;1.40;;;4.30;99.90;;;;;;5095459;28;20234;-65
2022/12/07 09:54:47;;;;;;;7.63;1.53;;;4.40;99.90;;;;;;5093090;28;20085;-66
2022/12/07 09:57:12;;;;;;;6.88;1.50;;;4.40;99.90;;;;;;5089793;28;20286;-65
2022/12/07 09:59:42;;;;;;;7.13;1.67;;;4.60;99.90;;;;;;5092180;28;20054;-65
2022/12/07 10:02:44;;;;;;;8.50;1.88;;;4.70;99.90;;;;;;5090629;28;20082;-66
2022/12/07 10:05:20;;;;;;;4.88;1.92;;;4.80;99.90;;;;;;5082261;28;20408;-65
2022/12/07 10:07:46;;;;;;;6.78;1.48;;;4.90;99.90;;;;;;5092173;28;20047;-65
2022/12/07 10:10:22;;;;;;;5.90;1.42;;;4.80;99.90;;;;;;5092961;28;20405;-65
2022/12/07 10:13:00;;;;;;;4.38;1.42;;;4.80;99.90;;;;;;5088943;28;20036;-65
2022/12/07 10:15:48;;;;;;;7.18;1.63;;;4.80;99.90;;;;;;5087907;28;20525;-66
2022/12/07 10:18:38;;;;;;;5.88;1.83;;;4.90;99.90;;;;;;5087600;28;20489;-65
2022/12/07 10:21:25;;;;;;;5.30;1.60;;;4.80;99.90;;;;;;5088828;28;20039;-65
2022/12/07 10:24:11;;;;;;;8.82;1.63;;;4.80;99.90;;;;;;5093002;28;20501;-65
2022/12/07 10:26:41;;;;;;;9.00;1.75;;;4.80;99.90;;;;;;5079138;28;20494;-65
2022/12/07 10:29:33;;;;;;;5.53;1.50;;;4.80;99.90;;;;;;5086578;28;20074;-65
2022/12/07 10:32:02;;;;;;;10.32;1.75;;;4.80;99.90;;;;;;5091862;28;20073;-64
2022/12/07 10:34:30;;;;;;;5.85;1.98;;;4.80;99.90;;;;;;5087222;28;20096;-65
2022/12/07 10:37:17;;;;;;;6.35;1.63;;;4.80;99.90;;;;;;5091760;28;20040;-65
2022/12/07 10:39:47;;;;;;;8.57;1.65;;;4.80;99.90;;;;;;5091193;28;20115;-64
2022/12/07 10:42:26;;;;;;;6.10;1.60;;;4.80;99.90;;;;;;5090695;28;20038;-63
2022/12/07 10:45:16;;;;;;;7.15;1.48;;;4.80;99.90;;;;;;5092626;28;20508;-64
2022/12/07 10:48:04;;;;;;;6.25;1.60;;;4.90;99.90;;;;;;5088033;28;20043;-64
2022/12/07 10:50:39;;;;;;;5.03;1.20;;;4.90;99.90;;;;;;5089248;28;20036;-65
2022/12/07 10:53:27;;;;;;;5.75;1.50;;;4.90;99.90;;;;;;5087906;28;20040;-65
2022/12/07 10:56:09;;;;;;;7.28;1.50;;;4.90;99.90;;;;;;5083565;28;20032;-65
2022/12/07 10:58:45;;;;;;;8.32;1.70;;;4.90;99.90;;;;;;5085942;28;20546;-65
2022/12/07 11:01:33;;;;;;;4.65;1.55;;;4.90;99.90;;;;;;5090180;28;20055;-64
2022/12/07 11:04:20;;;;;;;6.10;1.58;;;4.90;99.90;;;;;;5085698;28;20493;-65
2022/12/07 11:06:55;;;;;;;7.70;1.40;;;5.00;99.90;;;;;;5090393;28;20043;-65
2022/12/07 11:09:32;;;;;;;7.18;1.52;;;4.90;99.90;;;;;;5090698;28;20036;-65
2022/12/07 11:12:33;;;;;;;10.50;1.48;;;4.90;99.90;;;;;;5086756;28;20570;-65
2022/12/07 11:15:11;;;;;;;6.47;1.42;;;5.00;99.90;;;;;;5090925;28;20040;-65
2022/12/07 11:18:02;;;;;;;7.45;1.58;;;5.10;99.90;;;;;;5088807;28;20055;-65
2022/12/07 11:21:05;;;;;;;6.38;1.52;;;5.20;99.90;;;;;;5082699;28;20406;-65
2022/12/07 11:23:49;;;;;;;9.77;1.60;;;5.20;99.90;;;;;;5086507;28;20497;-66
2022/12/07 11:26:24;;;;;;;7.43;1.70;;;5.20;99.90;;;;;;5090581;28;20451;-66
2022/12/07 11:29:05;;;;;;;6.20;2.00;;;5.30;99.90;;;;;;5085957;28;20032;-66
2022/12/07 11:32:06;;;;;;;8.88;1.90;;;5.20;99.90;;;;;;5091002;28;20067;-65
2022/12/07 11:35:04;;;;;;;6.95;1.73;;;5.30;99.90;;;;;;5087660;28;20032;-65
2022/12/07 11:37:34;;;;;;;4.40;1.58;;;5.30;99.90;;;;;;5091812;28;20055;-65
2022/12/07 11:40:29;;;;;;;5.50;1.42;;;5.30;99.90;;;;;;5091345;28;20067;-66
2022/12/07 11:43:09;;;;;;;6.30;1.60;;;5.30;99.90;;;;;;5080485;28;20166;-65
2022/12/07 11:45:40;;;;;;;7.57;1.73;;;5.30;99.90;;;;;;5089416;28;20051;-65
2022/12/07 11:48:15;;;;;;;9.65;2.10;;;5.30;99.90;;;;;;5087982;28;20474;-65
2022/12/07 11:50:49;;;;;;;4.53;1.52;;;5.30;99.90;;;;;;5090296;28;20032;-65
2022/12/07 11:53:24;;;;;;;7.55;1.70;;;5.30;99.90;;;;;;5082196;28;20032;-65
2022/12/07 11:55:51;;;;;;;11.25;1.40;;;5.40;99.90;;;;;;5091782;28;20555;-65
2022/12/07 11:58:22;;;;;;;9.15;1.65;;;5.30;99.90;;;;;;5088401;28;20044;-65
2022/12/07 12:00:52;;;;;;;6.20;1.50;;;5.40;99.90;;;;;;5090410;28;20036;-65
2022/12/07 12:03:30;;;;;;;8.40;1.60;;;5.40;99.90;;;;;;5089657;28;20039;-65
2022/12/07 12:05:56;;;;;;;11.00;1.48;;;5.40;99.90;;;;;;5090419;28;20040;-65
2022/12/07 12:08:30;;;;;;;6.10;1.55;;;5.50;99.90;;;;;;5089565;28;20107;-65
2022/12/07 12:11:24;;;;;;;7.32;1.70;;;5.50;99.90;;;;;;5089513;28;20093;-65
2022/12/07 12:13:56;;;;;;;5.53;1.67;;;5.60;99.90;;;;;;5088508;28;20046;-65
2022/12/07 12:16:35;;;;;;;6.28;1.52;;;5.70;99.90;;;;;;5090942;28;20054;-65
2022/12/07 12:19:31;;;;;;;9.98;1.50;;;5.70;99.90;;;;;;5091716;28;20379;-65
2022/12/07 12:22:15;;;;;;;4.65;1.17;;;5.80;99.90;;;;;;5088886;28;20123;-65
2022/12/07 12:24:42;;;;;;;9.52;1.73;;;5.90;99.90;;;;;;5087291;28;20409;-65
2022/12/07 12:27:27;;;;;;;9.07;1.65;;;5.90;99.90;;;;;;5089903;28;20047;-65
2022/12/07 12:29:59;;;;;;;9.73;1.33;;;5.90;99.90;;;;;;5089842;28;20028;-65
2022/12/07 12:32:35;;;;;;;7.22;1.60;;;5.90;99.90;;;;;;5087931;28;20036;-65
2022/12/07 12:35:34;;;;;;;6.70;1.48;;;5.90;99.90;;;;;;5087811;28;20078;-65
2022/12/07 12:38:33;;;;;;;6.70;1.38;;;5.90;99.90;;;;;;5089491;28;20493;-65
2022/12/07 12:41:01;;;;;;;6.55;1.35;;;5.90;99.90;;;;;;5092109;28;20067;-66
2022/12/07 12:43:52;;;;;;;5.53;1.33;;;5.90;99.90;;;;;;5091557;28;20588;-65
2022/12/07 12:46:33;;;;;;;6.55;1.30;;;5.90;99.90;;;;;;5093096;28;20452;-65
2022/12/07 12:49:17;;;;;;;;;;;5.90;99.90;;;;;;5084108;28;20117;-65
2022/12/07 12:51:44;;;;;;;7.25;1.58;;;5.90;99.90;;;;;;5092991;28;19962;-65
2022/12/07 12:54:21;;;;;;;6.80;1.15;;;5.90;99.90;;;;;;5084680;28;20150;-65
2022/12/07 12:57:08;;;;;;;6.18;1.50;;;5.90;99.90;;;;;;5090286;28;20111;-65
2022/12/07 12:59:47;;;;;;;10.35;1.35;;;6.00;99.90;;;;;;5093708;28;20044;-65
2022/12/07 13:02:30;;;;;;;4.72;1.33;;;6.10;99.90;;;;;;5090005;28;20028;-65
2022/12/07 13:05:09;;;;;;;4.00;1.35;;;6.10;99.90;;;;;;5092056;28;20052;-65
2022/12/07 13:07:47;;;;;;;5.28;1.42;;;6.10;99.90;;;;;;5087528;28;20044;-65
2022/12/07 13:10:22;;;;;;;7.10;1.20;;;6.20;99.90;;;;;;5092468;28;20032;-65
2022/12/07 13:13:13;;;;;;;4.38;1.08;;;6.10;99.90;;;;;;5093305;28;20040;-65
2022/12/07 13:15:46;;;;;;;6.45;1.58;;;6.00;99.90;;;;;;5095129;28;20038;-65
2022/12/07 13:18:27;;;;;;;6.18;1.25;;;6.00;99.90;;;;;;5093544;28;20115;-65
2022/12/07 13:20:59;;;;;;;6.53;1.20;;;6.00;99.90;;;;;;5091356;28;20477;-65